Modest Town, Virginia
Current Conditions -  °F | °C
As of 4:54 PM on Thursday 27 Nov 2014 (Local Time) from KWAL Reporting Station
Broken Clouds Broken Clouds  
Wind Chill: 35°   Ceiling: 4900
Heat Index: 39°   Visibility: 10mi
Dew Point: 34°   Wind: 6mph
Humidity: 82%   Direction: 340°NNW
Pressure: 30.06"   Gusts: NA
Location:  37.81°N, 75.57°W
Report Text: KWAL 272154Z AUTO 34005KT 10SM BKN049 04/01 A3006 RMK AO2 SLP177 T00390011
Loading
Personal Weather Stations






























Interactive Weather Map New forecast layout! Learn more

10-Day Weather Forecast

Advertisements
Track Severe Weather on mobile